Flight Track Log - Related Links

Times and Time Zones

All times are in EDT time to prevent confusion due to time zone crossing. See the DAL3672 flight status page for this flight to view local times or setup timezone preferences in your user account.

Time Position Orientation Groundspeed Altitude Reporting Facility
EDT Latitude Longitude Course Direction KTS MPH feet Rate Location/Type
Mon 12:29:22 PM 42.9667 -71.4667 324° Northwest 173 199 2,400  Level KA90
Mon 12:30:27 PM 43.0133 -71.5058 328° Northwest 219 252 4,600 2,878 Climbing Boston Center
Mon 12:31:25 PM 43.0558 -71.5878 305° West 239 275 8,300 2,746 Climbing Boston Center
Mon 12:32:25 PM 43.0875 -71.6583 302° West 239 275 10,000 1,339 Climbing Boston Center
Mon 12:33:26 PM 43.1111 -71.7803 285° West 275 316 11,000 1,240 Climbing Boston Center
Mon 12:34:26 PM 43.1119 -71.8911 271° West 319 367 12,500 1,850 Climbing Boston Center
Mon 12:35:26 PM 43.1167 -72.0278 273° West 329 379 14,700 1,636 Climbing Boston Center
Mon 12:36:27 PM 43.1189 -72.1414 272° West 329 379 15,800 1,210 Climbing Boston Center
Mon 12:37:25 PM 43.1233 -72.2864 272° West 336 387 17,100 1,068 Climbing Boston Center
Mon 12:38:25 PM 43.1278 -72.4203 273° West 347 399 17,900 843 Climbing Boston Center
Mon 12:39:26 PM 43.1319 -72.5311 273° West 355 409 18,800 1,038 Climbing Boston Center
Mon 12:40:38 PM 43.1336 -72.6792 271° West 362 417 20,200 1,173 Climbing Boston Center
Mon 12:41:39 PM 43.1394 -72.8611 273° West 369 425 21,400 958 Climbing Boston Center
Mon 12:42:37 PM 43.1408 -73.0033 271° West 374 430 22,100 605 Climbing Boston Center
Mon 12:43:38 PM 43.1444 -73.1458 272° West 379 436 22,600 492 Climbing Boston Center
Mon 12:44:39 PM 43.1475 -73.2939 272° West 385 443 23,100 496 Climbing Boston Center
Mon 12:45:39 PM 43.1464 -73.4275 269° West 385 443 23,600 458 Climbing Boston Center
Mon 12:46:37 PM 43.1492 -73.5783 271° West 390 449 24,000 203 Climbing Boston Center
Mon 12:47:37 PM 43.1494 -73.7519 270° West 395 455 24,000  Level Boston Center
Mon 12:48:37 PM 43.1517 -73.9086 271° West 411 473 24,000  Level Boston Center
Mon 12:49:38 PM 43.1536 -74.0708 271° West 422 486 24,000  Level Boston Center
Mon 12:50:50 PM 43.1575 -74.2333 272° West 422 486 24,000  Level Boston Center
Mon 12:52:02 PM 43.1597 -74.4611 271° West 422 486 24,000  Level Boston Center
Mon 12:53:02 PM 43.1611 -74.6233 271° West 422 486 24,000  Level Boston Center
Mon 12:54:02 PM 43.1619 -74.7883 270° West 427 491 24,000  Level Boston Center
Mon 12:55:03 PM 43.1606 -74.9536 269° West 427 491 24,000  Level Boston Center
Mon 12:56:03 PM 43.1633 -75.1017 272° West 432 497 24,000  Level Boston Center
Mon 12:57:01 PM 43.1636 -75.2669 270° West 432 497 24,000  Level Boston Center
Mon 12:58:02 PM 43.1636 -75.4319 270° West 437 503 24,000  Level Boston Center
Mon 12:59:02 PM 43.1656 -75.5944 271° West 437 503 24,000  Level Boston Center
Mon 01:00:02 PM 43.1650 -75.7594 270° West 437 503 24,000  Level Boston Center
Mon 01:01:51 PM 43.1597 -76.0603 269° West 439 505 24,000  Level Cleveland Center
Mon 01:02:51 PM 43.1597 -76.2225 270° West 439 505 24,000  Level Cleveland Center
Mon 01:03:51 PM 43.1469 -76.3856 264° West 439 505 24,000  Level Cleveland Center
Mon 01:04:51 PM 43.1317 -76.5461 263° West 439 505 24,000  Level Cleveland Center
Mon 01:05:51 PM 43.1147 -76.7206 262° West 433 498 24,000  Level Cleveland Center
Mon 01:06:51 PM 43.1014 -76.8808 264° West 428 493 24,000  Level Cleveland Center
Mon 01:07:51 PM 43.0875 -77.0381 263° West 428 493 24,000  Level Cleveland Center
Mon 01:08:51 PM 43.0733 -77.1925 263° West 428 493 24,000  Level Cleveland Center
Mon 01:09:51 PM 43.0589 -77.3439 263° West 428 493 24,000  Level Cleveland Center
Mon 01:10:51 PM 43.0444 -77.5008 263° West 423 487 24,000  Level Cleveland Center
Mon 01:11:51 PM 43.0297 -77.6522 262° West 418 481 24,000  Level Cleveland Center
Mon 01:12:51 PM 43.0125 -77.8033 261° West 413 475 24,000  Level Cleveland Center
Mon 01:13:51 PM 42.9994 -77.9572 263° West 408 470 24,000  Level Cleveland Center
Mon 01:14:51 PM 42.9858 -78.0942 262° West 408 470 24,000  Level Cleveland Center
Mon 01:15:51 PM 42.9722 -78.2478 263° West 408 470 24,000  Level Cleveland Center
Mon 01:16:51 PM 42.9544 -78.3961 261° West 408 470 24,000  Level Cleveland Center
Mon 01:17:51 PM 42.9383 -78.5497 262° West 408 470 24,000  Level Cleveland Center
Mon 01:18:51 PM 42.9222 -78.7033 262° West 413 475 24,000  Level Cleveland Center
Mon 01:19:51 PM 42.9017 -78.8544 260° West 408 470 24,000  Level Cleveland Center
Mon 01:20:51 PM 42.8786 -78.9939 257° West 402 463 24,000  Level Cleveland Center
Mon 01:21:51 PM 42.8617 -79.1358 261° West 392 451 24,000  Level Cleveland Center
Mon 01:22:51 PM 42.8406 -79.2778 259° West 392 451 24,000  Level Cleveland Center
Mon 01:23:51 PM 42.8192 -79.4197 258° West 392 451 24,000  Level Cleveland Center
Mon 01:24:51 PM 42.7975 -79.5617 258° West 392 451 24,000  Level Cleveland Center
Mon 01:25:51 PM 42.7758 -79.7092 259° West 392 451 24,000 -100 Level Cleveland Center
Mon 01:26:51 PM 42.7539 -79.8481 258° West 392 451 23,800 -550 Descending Cleveland Center
Mon 01:27:51 PM 42.7464 -80.0064 266° West 392 451 22,900 -950 Descending Cleveland Center
Mon 01:28:51 PM 42.7386 -80.1478 266° West 387 445 21,900 -950 Descending Cleveland Center
Mon 01:29:51 PM 42.7328 -80.2694 266° West 375 432 21,000 -950 Descending Cleveland Center
Mon 01:30:51 PM 42.7289 -80.4081 268° West 368 423 20,000 -500 Descending Cleveland Center
Mon 01:31:51 PM 42.7228 -80.5408 266° West 362 417 20,000  Level Cleveland Center
Mon 01:32:51 PM 42.7164 -80.6764 266° West 362 417 20,000  Level Cleveland Center
Mon 01:33:51 PM 42.7100 -80.8178 267° West 372 428 20,000  Level Cleveland Center
Mon 01:34:51 PM 42.6992 -80.9589 264° West 378 435 20,000  Level Cleveland Center
Mon 01:35:51 PM 42.6819 -81.1000 261° West 378 435 20,000  Level Cleveland Center
Mon 01:36:51 PM 42.6647 -81.2494 261° West 378 435 20,000  Level Cleveland Center
Mon 01:37:51 PM 42.6492 -81.3850 261° West 373 429 20,000  Level Cleveland Center
Mon 01:38:51 PM 42.6336 -81.5258 262° West 366 421 20,000 -200 Level Cleveland Center
Mon 01:39:51 PM 42.6156 -81.6636 260° West 372 428 19,600 -800 Descending Cleveland Center
Mon 01:40:51 PM 42.5997 -81.7989 261° West 372 428 18,400 -1,150 Descending Cleveland Center
Mon 01:41:51 PM 42.5836 -81.9311 261° West 367 422 17,300 -1,150 Descending Cleveland Center
Mon 01:42:51 PM 42.5675 -82.0519 260° West 356 410 16,100 -1,250 Descending Cleveland Center
Mon 01:43:51 PM 42.5558 -82.1589 262° West 322 371 14,800 -1,160 Descending Cleveland Center
Mon 01:44:50 PM 42.5439 -82.2600 261° West 270 311 13,800 -952 Descending Cleveland Center
Mon 01:45:57 PM 42.5317 -82.3781 262° West 275 316 12,800 -893 Descending Cleveland Center
Mon 01:46:51 PM 42.5178 -82.4650 258° West 278 320 12,000 -421 Descending Cleveland Center
Mon 01:47:51 PM 42.5017 -82.5603 257° West 278 320 12,000  Level Cleveland Center
Mon 01:48:51 PM 42.4686 -82.6492 243° Southwest 273 314 12,000 -500 Level Cleveland Center
Mon 01:49:51 PM 42.4297 -82.7322 238° Southwest 268 308 11,000 -1,026 Descending Cleveland Center
Mon 01:50:07 PM 42.4186 -82.7600 242° Southwest 262 302 10,700 -1,100 Descending Cleveland Center
Mon 01:50:51 PM 42.3906 -82.8181 237° Southwest 268 308 9,900 -1,343 Descending Cleveland Center
Mon 01:51:14 PM 42.3772 -82.8542 243° Southwest 265 305 9,200 -1,600 Descending Cleveland Center
Mon 01:51:51 PM 42.3575 -82.9042 242° Southwest 268 308 8,300 -1,475 Descending Cleveland Center
Mon 01:52:15 PM 42.3672 -82.9411 290° West 274 315 7,700 -1,300 Descending Cleveland Center
Mon 01:52:51 PM 42.3847 -82.9978 293° West 245 282 7,000 -689 Descending Cleveland Center
Mon 01:53:16 PM 42.4092 -83.0269 319° Northwest 269 310 7,000 -600 Level Cleveland Center
Mon 01:53:51 PM 42.4292 -83.0728 301° West 234 269 6,400 -1,279 Descending Cleveland Center
Mon 01:54:17 PM 42.4303 -83.1122 272° West 215 247 5,700 -1,037 Descending Cleveland Center
Mon 01:55:12 PM 42.4103 -83.1733 246° West 176 203 5,000 -590 Descending Cleveland Center
Mon 01:56:19 PM 42.3778 -83.2197 227° Southwest 150 173 4,500 -815 Descending Cleveland Center
Mon 01:58:16 PM 42.3036 -83.2756 209° Southwest 164 189 2,500 -944 Descending Cleveland Center
Mon 01:59:17 PM 42.2675 -83.3050 211° Southwest 133 153 1,700 -689 Descending Cleveland Center
Mon 02:00:18 PM 42.2358 -83.3233 203° Southwest 124 143 1,100 -590 Descending Cleveland Center

Login

Don't have an account? Register now (free) for customized features, flight alerts, and more!